sensor_id;sensor_type;location;lat;lon;timestamp;P1;durP1;ratioP1;P2;durP2;ratioP2
15454;SDS011;21057;51.024;7.540;2022-08-07T00:00:51;12.77;;;12.07;;
15454;SDS011;21057;51.024;7.540;2022-08-07T00:03:18;12.50;;;11.80;;
15454;SDS011;21057;51.024;7.540;2022-08-07T00:05:45;12.47;;;11.77;;
15454;SDS011;21057;51.024;7.540;2022-08-07T00:08:12;13.17;;;12.37;;
15454;SDS011;21057;51.024;7.540;2022-08-07T00:10:39;12.27;;;11.57;;
15454;SDS011;21057;51.024;7.540;2022-08-07T00:13:06;12.70;;;12.00;;
15454;SDS011;21057;51.024;7.540;2022-08-07T00:15:35;12.70;;;12.00;;
15454;SDS011;21057;51.024;7.540;2022-08-07T00:18:02;12.40;;;11.60;;
15454;SDS011;21057;51.024;7.540;2022-08-07T00:20:29;12.00;;;11.40;;
15454;SDS011;21057;51.024;7.540;2022-08-07T00:22:56;12.30;;;11.50;;
15454;SDS011;21057;51.024;7.540;2022-08-07T00:25:23;12.00;;;11.40;;
15454;SDS011;21057;51.024;7.540;2022-08-07T00:27:50;12.33;;;11.57;;
15454;SDS011;21057;51.024;7.540;2022-08-07T00:30:17;12.20;;;11.60;;
15454;SDS011;21057;51.024;7.540;2022-08-07T00:32:47;12.07;;;11.37;;
15454;SDS011;21057;51.024;7.540;2022-08-07T00:35:15;12.63;;;11.63;;
15454;SDS011;21057;51.024;7.540;2022-08-07T00:37:43;12.60;;;11.90;;
15454;SDS011;21057;51.024;7.540;2022-08-07T00:40:10;12.17;;;11.53;;
15454;SDS011;21057;51.024;7.540;2022-08-07T00:42:38;13.17;;;11.97;;
15454;SDS011;21057;51.024;7.540;2022-08-07T00:45:06;12.60;;;11.80;;
15454;SDS011;21057;51.024;7.540;2022-08-07T00:47:34;12.23;;;11.53;;
15454;SDS011;21057;51.024;7.540;2022-08-07T00:50:03;12.83;;;12.13;;
15454;SDS011;21057;51.024;7.540;2022-08-07T00:52:31;12.37;;;11.67;;
15454;SDS011;21057;51.024;7.540;2022-08-07T00:54:58;12.53;;;11.83;;
15454;SDS011;21057;51.024;7.540;2022-08-07T00:57:25;12.77;;;12.07;;
15454;SDS011;21057;51.024;7.540;2022-08-07T00:59:52;12.40;;;11.70;;
15454;SDS011;21057;51.024;7.540;2022-08-07T01:02:19;12.67;;;11.97;;
15454;SDS011;21057;51.024;7.540;2022-08-07T01:04:47;12.63;;;11.83;;
15454;SDS011;21057;51.024;7.540;2022-08-07T01:07:15;12.60;;;11.90;;
15454;SDS011;21057;51.024;7.540;2022-08-07T01:09:44;12.37;;;11.67;;
15454;SDS011;21057;51.024;7.540;2022-08-07T01:12:11;12.13;;;11.53;;
15454;SDS011;21057;51.024;7.540;2022-08-07T01:14:39;12.10;;;11.50;;
15454;SDS011;21057;51.024;7.540;2022-08-07T01:17:06;12.33;;;11.63;;
15454;SDS011;21057;51.024;7.540;2022-08-07T01:19:34;12.47;;;11.83;;
15454;SDS011;21057;51.024;7.540;2022-08-07T01:22:03;12.23;;;11.63;;
15454;SDS011;21057;51.024;7.540;2022-08-07T01:24:30;12.47;;;11.77;;
15454;SDS011;21057;51.024;7.540;2022-08-07T01:26:58;12.23;;;11.57;;
15454;SDS011;21057;51.024;7.540;2022-08-07T01:29:26;12.07;;;11.47;;
15454;SDS011;21057;51.024;7.540;2022-08-07T01:31:55;12.33;;;11.63;;
15454;SDS011;21057;51.024;7.540;2022-08-07T01:34:22;12.33;;;11.73;;
15454;SDS011;21057;51.024;7.540;2022-08-07T01:36:50;12.40;;;11.70;;
15454;SDS011;21057;51.024;7.540;2022-08-07T01:39:18;12.53;;;11.80;;
15454;SDS011;21057;51.024;7.540;2022-08-07T01:41:45;11.97;;;11.37;;
15454;SDS011;21057;51.024;7.540;2022-08-07T01:44:13;12.53;;;11.83;;
15454;SDS011;21057;51.024;7.540;2022-08-07T01:46:40;12.37;;;11.70;;
15454;SDS011;21057;51.024;7.540;2022-08-07T01:49:09;12.43;;;11.73;;
15454;SDS011;21057;51.024;7.540;2022-08-07T01:51:36;12.83;;;12.10;;
15454;SDS011;21057;51.024;7.540;2022-08-07T01:54:07;12.40;;;11.80;;
15454;SDS011;21057;51.024;7.540;2022-08-07T01:56:40;12.63;;;11.93;;
15454;SDS011;21057;51.024;7.540;2022-08-07T01:59:16;12.43;;;11.63;;
15454;SDS011;21057;51.024;7.540;2022-08-07T02:02:00;12.17;;;11.57;;
15454;SDS011;21057;51.024;7.540;2022-08-07T02:04:31;12.50;;;11.80;;
15454;SDS011;21057;51.024;7.540;2022-08-07T02:07:05;12.73;;;12.03;;
15454;SDS011;21057;51.024;7.540;2022-08-07T02:09:34;12.43;;;11.73;;
15454;SDS011;21057;51.024;7.540;2022-08-07T02:12:03;12.57;;;11.87;;
15454;SDS011;21057;51.024;7.540;2022-08-07T02:14:42;12.20;;;11.60;;
15454;SDS011;21057;51.024;7.540;2022-08-07T02:17:12;12.33;;;11.63;;
15454;SDS011;21057;51.024;7.540;2022-08-07T02:19:41;12.33;;;11.63;;
15454;SDS011;21057;51.024;7.540;2022-08-07T02:22:10;12.17;;;11.57;;
15454;SDS011;21057;51.024;7.540;2022-08-07T02:24:39;12.60;;;11.90;;
15454;SDS011;21057;51.024;7.540;2022-08-07T02:27:09;12.57;;;11.90;;
15454;SDS011;21057;51.024;7.540;2022-08-07T02:29:38;12.10;;;11.50;;
15454;SDS011;21057;51.024;7.540;2022-08-07T02:32:06;12.80;;;11.80;;
15454;SDS011;21057;51.024;7.540;2022-08-07T02:34:34;12.60;;;11.90;;
15454;SDS011;21057;51.024;7.540;2022-08-07T02:37:04;12.47;;;11.87;;
15454;SDS011;21057;51.024;7.540;2022-08-07T02:39:33;12.60;;;11.90;;
15454;SDS011;21057;51.024;7.540;2022-08-07T02:42:01;12.77;;;12.03;;
15454;SDS011;21057;51.024;7.540;2022-08-07T02:44:30;12.23;;;11.63;;
15454;SDS011;21057;51.024;7.540;2022-08-07T02:46:57;12.30;;;11.70;;
15454;SDS011;21057;51.024;7.540;2022-08-07T02:49:25;12.83;;;12.03;;
15454;SDS011;21057;51.024;7.540;2022-08-07T02:51:53;12.80;;;12.10;;
15454;SDS011;21057;51.024;7.540;2022-08-07T02:54:23;12.30;;;11.70;;
15454;SDS011;21057;51.024;7.540;2022-08-07T02:56:53;12.50;;;11.70;;
15454;SDS011;21057;51.024;7.540;2022-08-07T02:59:22;12.50;;;11.80;;
15454;SDS011;21057;51.024;7.540;2022-08-07T03:01:52;12.70;;;11.83;;
15454;SDS011;21057;51.024;7.540;2022-08-07T03:04:21;12.30;;;11.70;;
15454;SDS011;21057;51.024;7.540;2022-08-07T03:06:49;12.80;;;11.90;;
15454;SDS011;21057;51.024;7.540;2022-08-07T03:09:17;12.50;;;11.70;;
15454;SDS011;21057;51.024;7.540;2022-08-07T03:11:45;12.53;;;11.83;;
15454;SDS011;21057;51.024;7.540;2022-08-07T03:14:13;12.60;;;11.90;;
15454;SDS011;21057;51.024;7.540;2022-08-07T03:16:41;12.50;;;11.80;;
15454;SDS011;21057;51.024;7.540;2022-08-07T03:19:10;12.43;;;11.73;;
15454;SDS011;21057;51.024;7.540;2022-08-07T03:21:37;13.20;;;12.13;;
15454;SDS011;21057;51.024;7.540;2022-08-07T03:24:04;12.30;;;11.60;;
15454;SDS011;21057;51.024;7.540;2022-08-07T03:26:32;12.40;;;11.70;;
15454;SDS011;21057;51.024;7.540;2022-08-07T03:29:00;12.60;;;11.90;;
15454;SDS011;21057;51.024;7.540;2022-08-07T03:31:29;12.13;;;11.50;;
15454;SDS011;21057;51.024;7.540;2022-08-07T03:33:58;12.20;;;11.60;;
15454;SDS011;21057;51.024;7.540;2022-08-07T03:36:27;12.33;;;11.73;;
15454;SDS011;21057;51.024;7.540;2022-08-07T03:38:56;12.80;;;12.10;;
15454;SDS011;21057;51.024;7.540;2022-08-07T03:41:27;12.27;;;11.67;;
15454;SDS011;21057;51.024;7.540;2022-08-07T03:43:56;12.00;;;11.40;;
15454;SDS011;21057;51.024;7.540;2022-08-07T03:46:24;12.30;;;11.60;;
15454;SDS011;21057;51.024;7.540;2022-08-07T03:48:51;11.80;;;11.20;;
15454;SDS011;21057;51.024;7.540;2022-08-07T03:51:19;12.07;;;11.43;;
15454;SDS011;21057;51.024;7.540;2022-08-07T03:53:48;12.03;;;11.33;;
15454;SDS011;21057;51.024;7.540;2022-08-07T03:56:17;12.10;;;11.50;;
15454;SDS011;21057;51.024;7.540;2022-08-07T03:58:46;12.37;;;11.57;;
15454;SDS011;21057;51.024;7.540;2022-08-07T04:01:15;12.63;;;11.80;;
15454;SDS011;21057;51.024;7.540;2022-08-07T04:03:43;12.43;;;11.73;;
15454;SDS011;21057;51.024;7.540;2022-08-07T04:06:10;12.50;;;11.80;;
15454;SDS011;21057;51.024;7.540;2022-08-07T04:08:38;12.47;;;11.80;;
15454;SDS011;21057;51.024;7.540;2022-08-07T04:11:07;13.70;;;12.93;;
15454;SDS011;21057;51.024;7.540;2022-08-07T04:13:36;12.80;;;12.10;;
15454;SDS011;21057;51.024;7.540;2022-08-07T04:16:03;13.10;;;12.40;;
15454;SDS011;21057;51.024;7.540;2022-08-07T04:18:30;12.90;;;12.20;;
15454;SDS011;21057;51.024;7.540;2022-08-07T04:20:58;13.10;;;12.40;;
15454;SDS011;21057;51.024;7.540;2022-08-07T04:23:25;13.03;;;12.33;;
15454;SDS011;21057;51.024;7.540;2022-08-07T04:25:53;13.80;;;13.00;;
15454;SDS011;21057;51.024;7.540;2022-08-07T04:28:21;13.30;;;12.60;;
15454;SDS011;21057;51.024;7.540;2022-08-07T04:30:49;13.30;;;12.60;;
15454;SDS011;21057;51.024;7.540;2022-08-07T04:33:17;13.27;;;12.57;;
15454;SDS011;21057;51.024;7.540;2022-08-07T04:35:44;13.13;;;12.40;;
15454;SDS011;21057;51.024;7.540;2022-08-07T04:38:12;13.07;;;12.10;;
15454;SDS011;21057;51.024;7.540;2022-08-07T04:40:40;12.50;;;11.80;;
15454;SDS011;21057;51.024;7.540;2022-08-07T04:43:09;12.33;;;11.73;;
15454;SDS011;21057;51.024;7.540;2022-08-07T04:45:40;12.77;;;12.07;;
15454;SDS011;21057;51.024;7.540;2022-08-07T04:48:16;13.40;;;12.70;;
15454;SDS011;21057;51.024;7.540;2022-08-07T04:50:52;13.53;;;12.73;;
15454;SDS011;21057;51.024;7.540;2022-08-07T04:53:26;13.67;;;12.87;;
15454;SDS011;21057;51.024;7.540;2022-08-07T04:56:00;13.70;;;13.00;;
15454;SDS011;21057;51.024;7.540;2022-08-07T04:58:33;13.20;;;12.50;;
15454;SDS011;21057;51.024;7.540;2022-08-07T05:01:09;13.40;;;12.70;;
15454;SDS011;21057;51.024;7.540;2022-08-07T05:03:43;13.53;;;12.83;;
15454;SDS011;21057;51.024;7.540;2022-08-07T05:06:16;13.60;;;12.90;;
15454;SDS011;21057;51.024;7.540;2022-08-07T05:08:48;13.60;;;12.90;;
15454;SDS011;21057;51.024;7.540;2022-08-07T05:11:20;13.50;;;12.80;;
15454;SDS011;21057;51.024;7.540;2022-08-07T05:13:51;13.80;;;13.10;;
15454;SDS011;21057;51.024;7.540;2022-08-07T05:16:24;14.70;;;13.90;;
15454;SDS011;21057;51.024;7.540;2022-08-07T05:18:58;14.33;;;13.53;;
15454;SDS011;21057;51.024;7.540;2022-08-07T05:21:28;14.30;;;13.50;;
15454;SDS011;21057;51.024;7.540;2022-08-07T05:23:58;14.17;;;13.47;;
15454;SDS011;21057;51.024;7.540;2022-08-07T05:26:28;14.70;;;13.80;;
15454;SDS011;21057;51.024;7.540;2022-08-07T05:28:59;14.17;;;13.47;;
15454;SDS011;21057;51.024;7.540;2022-08-07T05:31:30;14.57;;;13.77;;
15454;SDS011;21057;51.024;7.540;2022-08-07T05:34:02;14.40;;;13.60;;
15454;SDS011;21057;51.024;7.540;2022-08-07T05:36:33;14.90;;;14.00;;
15454;SDS011;21057;51.024;7.540;2022-08-07T05:39:02;15.10;;;14.20;;
15454;SDS011;21057;51.024;7.540;2022-08-07T05:41:30;15.03;;;14.13;;
15454;SDS011;21057;51.024;7.540;2022-08-07T05:43:57;14.60;;;13.80;;
15454;SDS011;21057;51.024;7.540;2022-08-07T05:46:24;14.70;;;13.90;;
15454;SDS011;21057;51.024;7.540;2022-08-07T05:48:52;15.32;;;14.10;;
15454;SDS011;21057;51.024;7.540;2022-08-07T05:51:20;15.60;;;14.30;;
15454;SDS011;21057;51.024;7.540;2022-08-07T05:53:48;15.40;;;14.20;;
15454;SDS011;21057;51.024;7.540;2022-08-07T05:56:15;14.90;;;14.10;;
15454;SDS011;21057;51.024;7.540;2022-08-07T05:58:45;14.65;;;13.85;;
15454;SDS011;21057;51.024;7.540;2022-08-07T06:01:13;15.20;;;14.05;;
15454;SDS011;21057;51.024;7.540;2022-08-07T06:03:43;15.02;;;14.02;;
15454;SDS011;21057;51.024;7.540;2022-08-07T06:06:14;14.80;;;13.90;;
15454;SDS011;21057;51.024;7.540;2022-08-07T06:08:44;14.88;;;14.00;;
15454;SDS011;21057;51.024;7.540;2022-08-07T06:11:12;14.75;;;13.95;;
15454;SDS011;21057;51.024;7.540;2022-08-07T06:13:40;14.63;;;13.82;;
15454;SDS011;21057;51.024;7.540;2022-08-07T06:16:07;14.52;;;13.73;;
15454;SDS011;21057;51.024;7.540;2022-08-07T06:18:35;14.27;;;13.52;;
15454;SDS011;21057;51.024;7.540;2022-08-07T06:21:02;13.85;;;13.15;;
15454;SDS011;21057;51.024;7.540;2022-08-07T06:23:31;14.63;;;13.82;;
15454;SDS011;21057;51.024;7.540;2022-08-07T06:25:58;14.95;;;14.15;;
15454;SDS011;21057;51.024;7.540;2022-08-07T06:28:25;14.98;;;14.18;;
15454;SDS011;21057;51.024;7.540;2022-08-07T06:30:52;14.50;;;13.70;;
15454;SDS011;21057;51.024;7.540;2022-08-07T06:33:20;14.43;;;13.63;;
15454;SDS011;21057;51.024;7.540;2022-08-07T06:35:47;14.40;;;13.45;;
15454;SDS011;21057;51.024;7.540;2022-08-07T06:38:14;14.20;;;13.50;;
15454;SDS011;21057;51.024;7.540;2022-08-07T06:40:45;13.85;;;13.05;;
15454;SDS011;21057;51.024;7.540;2022-08-07T06:43:14;14.20;;;13.48;;
15454;SDS011;21057;51.024;7.540;2022-08-07T06:45:44;14.55;;;13.75;;
15454;SDS011;21057;51.024;7.540;2022-08-07T06:48:11;14.65;;;13.85;;
15454;SDS011;21057;51.024;7.540;2022-08-07T06:50:39;14.63;;;13.88;;
15454;SDS011;21057;51.024;7.540;2022-08-07T06:53:09;14.45;;;13.65;;
15454;SDS011;21057;51.024;7.540;2022-08-07T06:55:38;14.70;;;13.90;;
15454;SDS011;21057;51.024;7.540;2022-08-07T06:58:08;14.57;;;13.80;;
15454;SDS011;21057;51.024;7.540;2022-08-07T07:00:38;14.80;;;14.00;;
15454;SDS011;21057;51.024;7.540;2022-08-07T07:03:06;14.90;;;14.00;;
15454;SDS011;21057;51.024;7.540;2022-08-07T07:05:34;14.23;;;13.32;;
15454;SDS011;21057;51.024;7.540;2022-08-07T07:08:02;14.40;;;13.60;;
15454;SDS011;21057;51.024;7.540;2022-08-07T07:10:29;14.55;;;13.75;;
15454;SDS011;21057;51.024;7.540;2022-08-07T07:13:01;14.35;;;13.55;;
15454;SDS011;21057;51.024;7.540;2022-08-07T07:15:38;14.00;;;13.30;;
15454;SDS011;21057;51.024;7.540;2022-08-07T07:18:13;13.88;;;13.18;;
15454;SDS011;21057;51.024;7.540;2022-08-07T07:20:44;13.90;;;13.20;;
15454;SDS011;21057;51.024;7.540;2022-08-07T07:23:16;13.57;;;12.88;;
15454;SDS011;21057;51.024;7.540;2022-08-07T07:25:43;13.80;;;13.05;;
15454;SDS011;21057;51.024;7.540;2022-08-07T07:28:14;14.10;;;13.40;;
15454;SDS011;21057;51.024;7.540;2022-08-07T07:30:47;14.15;;;13.35;;
15454;SDS011;21057;51.024;7.540;2022-08-07T07:33:18;13.80;;;13.10;;
15454;SDS011;21057;51.024;7.540;2022-08-07T07:35:48;13.70;;;13.00;;
15454;SDS011;21057;51.024;7.540;2022-08-07T07:38:17;14.05;;;13.30;;
15454;SDS011;21057;51.024;7.540;2022-08-07T07:40:47;14.02;;;13.32;;
15454;SDS011;21057;51.024;7.540;2022-08-07T07:43:15;13.90;;;13.20;;
15454;SDS011;21057;51.024;7.540;2022-08-07T07:45:46;14.30;;;13.50;;
15454;SDS011;21057;51.024;7.540;2022-08-07T07:48:15;14.45;;;13.43;;
15454;SDS011;21057;51.024;7.540;2022-08-07T07:50:45;14.77;;;13.77;;
15454;SDS011;21057;51.024;7.540;2022-08-07T07:53:14;14.43;;;13.65;;
15454;SDS011;21057;51.024;7.540;2022-08-07T07:55:42;14.57;;;13.77;;
15454;SDS011;21057;51.024;7.540;2022-08-07T07:58:10;15.20;;;14.30;;
15454;SDS011;21057;51.024;7.540;2022-08-07T08:00:38;15.20;;;14.30;;
15454;SDS011;21057;51.024;7.540;2022-08-07T08:03:09;14.75;;;13.95;;
15454;SDS011;21057;51.024;7.540;2022-08-07T08:05:38;15.13;;;14.00;;
15454;SDS011;21057;51.024;7.540;2022-08-07T08:08:06;15.30;;;14.50;;
15454;SDS011;21057;51.024;7.540;2022-08-07T08:10:35;14.75;;;13.95;;
15454;SDS011;21057;51.024;7.540;2022-08-07T08:13:03;15.50;;;14.70;;
15454;SDS011;21057;51.024;7.540;2022-08-07T08:15:34;14.70;;;13.90;;
15454;SDS011;21057;51.024;7.540;2022-08-07T08:18:04;14.85;;;14.05;;
15454;SDS011;21057;51.024;7.540;2022-08-07T08:20:37;14.85;;;14.05;;
15454;SDS011;21057;51.024;7.540;2022-08-07T08:23:05;15.40;;;14.60;;
15454;SDS011;21057;51.024;7.540;2022-08-07T08:25:52;14.73;;;13.93;;
15454;SDS011;21057;51.024;7.540;2022-08-07T08:28:39;14.90;;;14.10;;
15454;SDS011;21057;51.024;7.540;2022-08-07T08:31:09;14.82;;;13.93;;
15454;SDS011;21057;51.024;7.540;2022-08-07T08:33:42;14.80;;;14.00;;
15454;SDS011;21057;51.024;7.540;2022-08-07T08:36:12;15.38;;;14.57;;
15454;SDS011;21057;51.024;7.540;2022-08-07T08:38:41;15.20;;;14.40;;
15454;SDS011;21057;51.024;7.540;2022-08-07T08:41:12;15.02;;;14.23;;
15454;SDS011;21057;51.024;7.540;2022-08-07T08:43:46;15.35;;;14.45;;
15454;SDS011;21057;51.024;7.540;2022-08-07T08:46:17;15.07;;;14.27;;
15454;SDS011;21057;51.024;7.540;2022-08-07T08:48:53;15.77;;;14.88;;
15454;SDS011;21057;51.024;7.540;2022-08-07T08:51:26;14.85;;;14.05;;
15454;SDS011;21057;51.024;7.540;2022-08-07T08:53:58;15.20;;;14.30;;
15454;SDS011;21057;51.024;7.540;2022-08-07T08:56:32;15.55;;;14.75;;
15454;SDS011;21057;51.024;7.540;2022-08-07T08:59:03;15.10;;;14.20;;
15454;SDS011;21057;51.024;7.540;2022-08-07T09:01:36;15.27;;;14.30;;
15454;SDS011;21057;51.024;7.540;2022-08-07T09:04:13;15.30;;;14.50;;
15454;SDS011;21057;51.024;7.540;2022-08-07T09:06:49;15.63;;;14.73;;
15454;SDS011;21057;51.024;7.540;2022-08-07T09:09:24;15.63;;;14.50;;
15454;SDS011;21057;51.024;7.540;2022-08-07T09:12:04;15.50;;;14.63;;
15454;SDS011;21057;51.024;7.540;2022-08-07T09:14:39;16.20;;;15.32;;
15454;SDS011;21057;51.024;7.540;2022-08-07T09:17:17;16.23;;;15.30;;
15454;SDS011;21057;51.024;7.540;2022-08-07T09:19:58;16.25;;;15.25;;
15454;SDS011;21057;51.024;7.540;2022-08-07T09:22:40;16.52;;;15.63;;
15454;SDS011;21057;51.024;7.540;2022-08-07T09:25:21;16.60;;;15.70;;
15454;SDS011;21057;51.024;7.540;2022-08-07T09:27:54;17.55;;;16.10;;
15454;SDS011;21057;51.024;7.540;2022-08-07T09:30:28;16.92;;;16.02;;
15454;SDS011;21057;51.024;7.540;2022-08-07T09:33:18;17.33;;;16.40;;
15454;SDS011;21057;51.024;7.540;2022-08-07T09:36:00;17.23;;;16.20;;
15454;SDS011;21057;51.024;7.540;2022-08-07T09:38:35;16.95;;;16.05;;
15454;SDS011;21057;51.024;7.540;2022-08-07T09:41:12;16.30;;;15.40;;
15454;SDS011;21057;51.024;7.540;2022-08-07T09:43:52;17.13;;;16.13;;
15454;SDS011;21057;51.024;7.540;2022-08-07T09:46:32;17.33;;;16.42;;
15454;SDS011;21057;51.024;7.540;2022-08-07T09:49:11;16.83;;;15.93;;
15454;SDS011;21057;51.024;7.540;2022-08-07T09:51:57;16.90;;;15.70;;
15454;SDS011;21057;51.024;7.540;2022-08-07T09:54:32;16.83;;;15.93;;
15454;SDS011;21057;51.024;7.540;2022-08-07T09:57:10;16.50;;;15.60;;
15454;SDS011;21057;51.024;7.540;2022-08-07T10:00:05;16.52;;;15.63;;
15454;SDS011;21057;51.024;7.540;2022-08-07T10:02:41;16.92;;;15.60;;
15454;SDS011;21057;51.024;7.540;2022-08-07T10:05:34;16.27;;;15.38;;
15454;SDS011;21057;51.024;7.540;2022-08-07T10:11:34;16.20;;;15.30;;
15454;SDS011;21057;51.024;7.540;2022-08-07T10:14:17;16.13;;;15.23;;
15454;SDS011;21057;51.024;7.540;2022-08-07T10:17:00;16.02;;;15.20;;
15454;SDS011;21057;51.024;7.540;2022-08-07T10:19:36;15.95;;;15.05;;
15454;SDS011;21057;51.024;7.540;2022-08-07T10:22:12;15.25;;;14.35;;
15454;SDS011;21057;51.024;7.540;2022-08-07T10:27:56;15.95;;;15.00;;
15454;SDS011;21057;51.024;7.540;2022-08-07T10:30:42;15.77;;;14.98;;
15454;SDS011;21057;51.024;7.540;2022-08-07T10:33:27;16.23;;;15.23;;
15454;SDS011;21057;51.024;7.540;2022-08-07T10:36:12;15.55;;;14.75;;
15454;SDS011;21057;51.024;7.540;2022-08-07T10:38:48;15.00;;;14.20;;
15454;SDS011;21057;51.024;7.540;2022-08-07T10:41:26;15.45;;;14.65;;
15454;SDS011;21057;51.024;7.540;2022-08-07T10:44:01;15.90;;;15.07;;
15454;SDS011;21057;51.024;7.540;2022-08-07T10:46:35;16.08;;;15.18;;
15454;SDS011;21057;51.024;7.540;2022-08-07T10:49:09;16.30;;;15.40;;
15454;SDS011;21057;51.024;7.540;2022-08-07T10:51:48;16.65;;;15.75;;
15454;SDS011;21057;51.024;7.540;2022-08-07T10:54:22;16.08;;;15.18;;
15454;SDS011;21057;51.024;7.540;2022-08-07T10:57:01;16.02;;;15.23;;
15454;SDS011;21057;51.024;7.540;2022-08-07T10:59:40;15.57;;;14.77;;
15454;SDS011;21057;51.024;7.540;2022-08-07T11:02:26;16.08;;;14.95;;
15454;SDS011;21057;51.024;7.540;2022-08-07T11:05:00;16.08;;;15.18;;
15454;SDS011;21057;51.024;7.540;2022-08-07T11:07:36;16.10;;;15.20;;
15454;SDS011;21057;51.024;7.540;2022-08-07T11:10:15;15.80;;;14.80;;
15454;SDS011;21057;51.024;7.540;2022-08-07T11:12:47;15.50;;;14.60;;
15454;SDS011;21057;51.024;7.540;2022-08-07T11:15:22;15.40;;;14.50;;
15454;SDS011;21057;51.024;7.540;2022-08-07T11:17:57;16.38;;;15.38;;
15454;SDS011;21057;51.024;7.540;2022-08-07T11:20:30;15.43;;;14.63;;
15454;SDS011;21057;51.024;7.540;2022-08-07T11:23:06;15.50;;;14.70;;
15454;SDS011;21057;51.024;7.540;2022-08-07T11:25:40;15.50;;;14.60;;
15454;SDS011;21057;51.024;7.540;2022-08-07T11:38:38;15.80;;;15.00;;
15454;SDS011;21057;51.024;7.540;2022-08-07T11:41:12;15.45;;;14.65;;
15454;SDS011;21057;51.024;7.540;2022-08-07T11:43:42;15.70;;;14.90;;
15454;SDS011;21057;51.024;7.540;2022-08-07T11:46:22;15.93;;;15.13;;
15454;SDS011;21057;51.024;7.540;2022-08-07T11:52:38;16.10;;;15.20;;
15454;SDS011;21057;51.024;7.540;2022-08-07T11:55:21;16.50;;;15.50;;
15454;SDS011;21057;51.024;7.540;2022-08-07T11:57:58;16.00;;;15.20;;
15454;SDS011;21057;51.024;7.540;2022-08-07T12:00:31;15.88;;;15.02;;
15454;SDS011;21057;51.024;7.540;2022-08-07T12:03:24;16.33;;;15.48;;
15454;SDS011;21057;51.024;7.540;2022-08-07T12:06:09;16.10;;;15.20;;
15454;SDS011;21057;51.024;7.540;2022-08-07T12:08:46;16.02;;;15.20;;
15454;SDS011;21057;51.024;7.540;2022-08-07T12:11:20;16.00;;;15.20;;
15454;SDS011;21057;51.024;7.540;2022-08-07T12:13:52;15.63;;;14.73;;
15454;SDS011;21057;51.024;7.540;2022-08-07T12:16:24;15.70;;;14.90;;
15454;SDS011;21057;51.024;7.540;2022-08-07T12:18:54;15.63;;;14.82;;
15454;SDS011;21057;51.024;7.540;2022-08-07T12:21:32;15.60;;;14.80;;
15454;SDS011;21057;51.024;7.540;2022-08-07T12:24:06;15.95;;;15.05;;
15454;SDS011;21057;51.024;7.540;2022-08-07T12:26:42;16.30;;;15.40;;
15454;SDS011;21057;51.024;7.540;2022-08-07T12:29:15;16.15;;;15.25;;
15454;SDS011;21057;51.024;7.540;2022-08-07T12:31:47;15.80;;;14.95;;
15454;SDS011;21057;51.024;7.540;2022-08-07T12:34:22;15.73;;;14.73;;
15454;SDS011;21057;51.024;7.540;2022-08-07T12:36:51;15.70;;;14.80;;
15454;SDS011;21057;51.024;7.540;2022-08-07T12:39:19;16.10;;;15.30;;
15454;SDS011;21057;51.024;7.540;2022-08-07T12:41:50;15.98;;;15.10;;
15454;SDS011;21057;51.024;7.540;2022-08-07T12:44:18;16.08;;;15.18;;
15454;SDS011;21057;51.024;7.540;2022-08-07T12:46:54;15.98;;;15.15;;
15454;SDS011;21057;51.024;7.540;2022-08-07T12:49:32;15.60;;;14.80;;
15454;SDS011;21057;51.024;7.540;2022-08-07T12:52:06;15.55;;;14.75;;
15454;SDS011;21057;51.024;7.540;2022-08-07T12:54:39;16.00;;;15.20;;
15454;SDS011;21057;51.024;7.540;2022-08-07T12:57:13;15.70;;;14.80;;
15454;SDS011;21057;51.024;7.540;2022-08-07T12:59:42;15.50;;;14.70;;
15454;SDS011;21057;51.024;7.540;2022-08-07T13:02:14;15.82;;;15.02;;
15454;SDS011;21057;51.024;7.540;2022-08-07T13:05:02;15.90;;;15.00;;
15454;SDS011;21057;51.024;7.540;2022-08-07T13:07:49;16.10;;;15.30;;
15454;SDS011;21057;51.024;7.540;2022-08-07T13:10:37;15.20;;;14.40;;
15454;SDS011;21057;51.024;7.540;2022-08-07T13:13:16;15.52;;;14.73;;
15454;SDS011;21057;51.024;7.540;2022-08-07T13:15:54;16.05;;;14.93;;
15454;SDS011;21057;51.024;7.540;2022-08-07T13:18:26;15.50;;;14.70;;
15454;SDS011;21057;51.024;7.540;2022-08-07T13:21:04;15.32;;;14.50;;
15454;SDS011;21057;51.024;7.540;2022-08-07T13:23:42;15.48;;;14.68;;
15454;SDS011;21057;51.024;7.540;2022-08-07T13:26:18;15.75;;;14.85;;
15454;SDS011;21057;51.024;7.540;2022-08-07T13:28:52;15.00;;;14.20;;
15454;SDS011;21057;51.024;7.540;2022-08-07T13:31:25;15.20;;;14.30;;
15454;SDS011;21057;51.024;7.540;2022-08-07T13:33:59;15.63;;;14.75;;
15454;SDS011;21057;51.024;7.540;2022-08-07T13:36:33;15.10;;;14.30;;
15454;SDS011;21057;51.024;7.540;2022-08-07T13:39:06;15.07;;;14.27;;
15454;SDS011;21057;51.024;7.540;2022-08-07T13:41:41;15.57;;;14.77;;
15454;SDS011;21057;51.024;7.540;2022-08-07T13:44:11;15.02;;;14.23;;
15454;SDS011;21057;51.024;7.540;2022-08-07T13:46:44;15.65;;;14.85;;
15454;SDS011;21057;51.024;7.540;2022-08-07T13:49:12;16.13;;;15.13;;
15454;SDS011;21057;51.024;7.540;2022-08-07T13:51:43;15.63;;;14.80;;
15454;SDS011;21057;51.024;7.540;2022-08-07T13:54:12;15.13;;;14.32;;
15454;SDS011;21057;51.024;7.540;2022-08-07T13:56:41;15.27;;;14.48;;
15454;SDS011;21057;51.024;7.540;2022-08-07T13:59:13;15.57;;;14.50;;
15454;SDS011;21057;51.024;7.540;2022-08-07T14:01:47;15.40;;;14.60;;
15454;SDS011;21057;51.024;7.540;2022-08-07T14:04:17;15.50;;;14.70;;
15454;SDS011;21057;51.024;7.540;2022-08-07T14:06:49;14.82;;;14.02;;
15454;SDS011;21057;51.024;7.540;2022-08-07T14:09:19;15.25;;;14.35;;
15454;SDS011;21057;51.024;7.540;2022-08-07T14:11:48;15.43;;;14.63;;
15454;SDS011;21057;51.024;7.540;2022-08-07T14:14:21;15.00;;;14.20;;
15454;SDS011;21057;51.024;7.540;2022-08-07T14:16:54;14.93;;;14.02;;
15454;SDS011;21057;51.024;7.540;2022-08-07T14:19:28;15.30;;;14.38;;
15454;SDS011;21057;51.024;7.540;2022-08-07T14:22:00;15.30;;;14.50;;
15454;SDS011;21057;51.024;7.540;2022-08-07T14:24:32;15.65;;;14.85;;
15454;SDS011;21057;51.024;7.540;2022-08-07T14:27:03;15.13;;;14.32;;
15454;SDS011;21057;51.024;7.540;2022-08-07T14:29:36;15.23;;;14.35;;
15454;SDS011;21057;51.024;7.540;2022-08-07T14:32:08;14.90;;;14.07;;
15454;SDS011;21057;51.024;7.540;2022-08-07T14:34:38;14.70;;;13.90;;
15454;SDS011;21057;51.024;7.540;2022-08-07T14:37:08;15.10;;;14.30;;
15454;SDS011;21057;51.024;7.540;2022-08-07T14:39:36;15.05;;;14.15;;
15454;SDS011;21057;51.024;7.540;2022-08-07T14:42:05;14.85;;;14.05;;
15454;SDS011;21057;51.024;7.540;2022-08-07T14:44:36;15.18;;;14.18;;
15454;SDS011;21057;51.024;7.540;2022-08-07T14:47:08;15.02;;;14.23;;
15454;SDS011;21057;51.024;7.540;2022-08-07T14:49:37;15.38;;;14.57;;
15454;SDS011;21057;51.024;7.540;2022-08-07T14:52:07;15.00;;;14.20;;
15454;SDS011;21057;51.024;7.540;2022-08-07T14:54:37;15.23;;;14.43;;
15454;SDS011;21057;51.024;7.540;2022-08-07T14:57:05;14.65;;;13.85;;
15454;SDS011;21057;51.024;7.540;2022-08-07T14:59:38;14.73;;;13.93;;
15454;SDS011;21057;51.024;7.540;2022-08-07T15:02:08;15.30;;;14.50;;
15454;SDS011;21057;51.024;7.540;2022-08-07T15:04:38;14.95;;;14.15;;
15454;SDS011;21057;51.024;7.540;2022-08-07T15:07:06;15.10;;;14.30;;